createdAt,value
2022-10-04T00:01:09.379Z,6.63
2022-10-04T00:03:43.806Z,8.00
2022-10-04T00:06:19.695Z,9.70
2022-10-04T00:08:51.595Z,7.33
2022-10-04T00:11:24.971Z,8.73
2022-10-04T00:13:57.203Z,6.60
2022-10-04T00:16:31.924Z,9.30
2022-10-04T00:19:19.426Z,9.17
2022-10-04T00:22:17.333Z,6.23
2022-10-04T00:25:18.453Z,6.57
2022-10-04T00:28:28.650Z,8.87
2022-10-04T00:31:21.767Z,4.97
2022-10-04T00:33:53.454Z,7.33
2022-10-04T00:36:41.746Z,8.23
2022-10-04T00:39:24.845Z,7.97
2022-10-04T00:42:04.358Z,8.07
2022-10-04T00:44:40.186Z,7.27
2022-10-04T00:47:20.266Z,9.10
2022-10-04T00:49:54.376Z,8.20
2022-10-04T00:52:26.836Z,9.80
2022-10-04T00:54:59.091Z,7.60
2022-10-04T00:57:32.038Z,5.90
2022-10-04T01:00:03.442Z,6.90
2022-10-04T01:02:36.860Z,5.53
2022-10-04T01:05:10.624Z,7.20
2022-10-04T01:07:43.474Z,5.67
2022-10-04T01:10:18.520Z,4.97
2022-10-04T01:12:51.605Z,8.63
2022-10-04T01:15:28.270Z,8.13
2022-10-04T01:18:11.802Z,7.30
2022-10-04T01:20:50.229Z,8.87
2022-10-04T01:23:35.951Z,7.63
2022-10-04T01:26:05.669Z,7.97
2022-10-04T01:28:35.269Z,12.80
2022-10-04T01:31:03.146Z,5.27
2022-10-04T01:33:31.010Z,6.77
2022-10-04T01:35:58.815Z,6.67
2022-10-04T01:38:26.624Z,4.77
2022-10-04T01:41:01.151Z,7.30
2022-10-04T01:43:35.984Z,6.10
2022-10-04T01:46:08.737Z,5.40
2022-10-04T01:48:39.123Z,9.27
2022-10-04T01:51:14.184Z,9.17
2022-10-04T01:53:47.223Z,7.13
2022-10-04T01:56:20.740Z,6.40
2022-10-04T01:58:51.875Z,5.80
2022-10-04T02:01:28.514Z,5.53
2022-10-04T02:04:02.072Z,6.60
2022-10-04T02:06:31.223Z,5.57
2022-10-04T02:08:59.663Z,4.60
2022-10-04T02:11:31.221Z,7.90
2022-10-04T02:14:01.195Z,7.37
2022-10-04T02:16:29.556Z,6.73
2022-10-04T02:18:58.027Z,7.47
2022-10-04T02:21:26.157Z,8.63
2022-10-04T02:23:54.731Z,7.23
2022-10-04T02:26:22.544Z,6.93
2022-10-04T02:28:52.337Z,5.47
2022-10-04T02:31:40.859Z,6.83
2022-10-04T02:34:09.399Z,8.23
2022-10-04T02:36:39.436Z,6.47
2022-10-04T02:39:11.145Z,7.80
2022-10-04T02:41:44.607Z,7.30
2022-10-04T02:44:18.865Z,7.43
2022-10-04T02:46:54.567Z,8.33
2022-10-04T02:49:29.821Z,7.83
2022-10-04T02:52:03.104Z,7.77
2022-10-04T02:54:35.272Z,7.43
2022-10-04T02:57:03.146Z,7.40
2022-10-04T02:59:35.502Z,7.87
2022-10-04T03:02:03.906Z,7.10
2022-10-04T03:04:34.450Z,6.43
2022-10-04T03:07:06.057Z,6.13
2022-10-04T03:09:36.363Z,9.63
2022-10-04T03:12:05.677Z,8.83
2022-10-04T03:14:35.554Z,6.37
2022-10-04T03:17:04.944Z,8.93
2022-10-04T03:19:34.538Z,8.33
2022-10-04T03:22:08.809Z,8.57
2022-10-04T03:24:40.644Z,9.87
2022-10-04T03:27:10.472Z,11.20
2022-10-04T03:29:43.800Z,9.37
2022-10-04T03:32:15.610Z,13.60
2022-10-04T03:34:50.130Z,9.27
2022-10-04T03:37:20.212Z,16.57
2022-10-04T03:39:50.756Z,11.53
2022-10-04T03:42:21.532Z,13.27
2022-10-04T03:44:54.018Z,11.97
2022-10-04T03:47:26.234Z,12.00
2022-10-04T03:49:55.956Z,15.93
2022-10-04T03:52:28.459Z,14.77
2022-10-04T03:55:01.330Z,14.50
2022-10-04T03:57:30.373Z,11.50
2022-10-04T04:00:00.388Z,12.37
2022-10-04T04:02:35.016Z,12.37
2022-10-04T04:05:11.952Z,14.47
2022-10-04T04:07:44.913Z,14.37
2022-10-04T04:10:22.113Z,13.63
2022-10-04T04:12:57.452Z,14.80
2022-10-04T04:15:30.417Z,12.90
2022-10-04T04:18:02.432Z,14.77
2022-10-04T04:20:34.831Z,15.87
2022-10-04T04:23:06.757Z,19.77
2022-10-04T04:25:38.407Z,16.60
2022-10-04T04:28:17.161Z,17.20
2022-10-04T04:30:50.142Z,20.83
2022-10-04T04:33:27.775Z,16.03
2022-10-04T04:35:57.324Z,17.40
2022-10-04T04:38:26.459Z,9.90
2022-10-04T04:40:55.746Z,14.00
2022-10-04T04:43:27.651Z,16.37
2022-10-04T04:46:25.650Z,15.60
2022-10-04T04:48:49.731Z,18.67
2022-10-04T04:51:22.099Z,14.97
2022-10-04T04:53:51.620Z,11.37
2022-10-04T04:56:23.882Z,15.03
2022-10-04T04:58:53.683Z,12.90
2022-10-04T05:01:26.779Z,14.70
2022-10-04T05:04:05.748Z,13.23
2022-10-04T05:06:35.277Z,15.60
2022-10-04T05:09:03.332Z,13.47
2022-10-04T05:11:34.026Z,14.83
2022-10-04T05:14:05.824Z,15.97
2022-10-04T05:16:41.964Z,14.73
2022-10-04T05:19:15.417Z,12.30
2022-10-04T05:21:46.505Z,14.97
2022-10-04T05:24:22.844Z,12.03
2022-10-04T05:26:52.591Z,18.37
2022-10-04T05:29:24.088Z,18.97
2022-10-04T05:32:04.209Z,14.00
2022-10-04T05:34:37.132Z,16.77
2022-10-04T05:37:23.569Z,14.30
2022-10-04T05:40:02.022Z,17.47
2022-10-04T05:42:38.355Z,16.20
2022-10-04T05:45:15.748Z,13.47
2022-10-04T05:47:46.286Z,19.63
2022-10-04T05:50:19.332Z,15.60
2022-10-04T05:52:50.056Z,15.40
2022-10-04T05:55:26.169Z,16.90
2022-10-04T05:58:25.294Z,16.80
2022-10-04T06:01:28.933Z,15.53
2022-10-04T06:04:24.557Z,16.63
2022-10-04T06:06:58.874Z,14.40
2022-10-04T06:09:51.630Z,15.00
2022-10-04T06:12:33.414Z,15.17
2022-10-04T06:15:20.092Z,20.00
2022-10-04T06:18:07.674Z,17.03
2022-10-04T06:20:59.135Z,16.30
2022-10-04T06:23:29.139Z,19.10
2022-10-04T06:26:00.709Z,14.63
2022-10-04T06:28:33.312Z,15.67
2022-10-04T06:31:33.887Z,11.00
2022-10-04T06:34:29.388Z,9.87
2022-10-04T06:37:17.313Z,13.37
2022-10-04T06:40:29.762Z,13.27
2022-10-04T06:43:18.369Z,10.40
2022-10-04T06:46:04.779Z,11.70
2022-10-04T06:48:49.076Z,16.77
2022-10-04T06:51:33.195Z,15.80
2022-10-04T06:54:15.419Z,20.30
2022-10-04T06:57:08.393Z,17.10
2022-10-04T07:00:03.263Z,35.43
2022-10-04T07:02:38.779Z,13.73
2022-10-04T07:05:16.439Z,11.83
2022-10-04T07:07:48.648Z,18.70
2022-10-04T07:10:29.604Z,17.00
2022-10-04T07:13:10.662Z,14.57
2022-10-04T07:15:46.283Z,17.37
2022-10-04T07:18:24.350Z,16.40
2022-10-04T07:21:00.434Z,12.80
2022-10-04T07:23:33.265Z,14.13
2022-10-04T07:26:07.439Z,15.70
2022-10-04T07:28:59.645Z,14.57
2022-10-04T07:31:31.242Z,13.90
2022-10-04T07:34:02.581Z,10.80
2022-10-04T07:36:40.037Z,13.07
2022-10-04T07:39:14.811Z,12.33
2022-10-04T07:41:50.911Z,14.83
2022-10-04T07:44:31.259Z,12.17
2022-10-04T07:47:03.184Z,16.90
2022-10-04T07:49:39.065Z,11.83
2022-10-04T07:52:26.716Z,12.00
2022-10-04T07:55:06.914Z,11.43
2022-10-04T07:57:48.997Z,14.57
2022-10-04T08:00:20.843Z,10.73
2022-10-04T08:03:16.479Z,14.57
2022-10-04T08:05:49.634Z,10.20
2022-10-04T08:08:38.111Z,10.97
2022-10-04T08:11:23.032Z,13.33
2022-10-04T08:14:05.833Z,12.43
2022-10-04T08:16:38.202Z,13.87
2022-10-04T08:19:27.152Z,8.17
2022-10-04T08:22:03.106Z,10.10
2022-10-04T08:24:38.000Z,12.03
2022-10-04T08:27:33.730Z,10.83
2022-10-04T08:30:10.998Z,12.20
2022-10-04T08:32:55.844Z,11.50
2022-10-04T08:35:55.997Z,13.47
2022-10-04T08:38:43.225Z,12.73
2022-10-04T08:41:46.657Z,11.13
2022-10-04T08:44:54.114Z,11.80
2022-10-04T08:47:59.147Z,11.53
2022-10-04T08:51:06.831Z,11.87
2022-10-04T08:54:06.747Z,14.90
2022-10-04T08:56:56.206Z,10.13
2022-10-04T08:59:50.976Z,13.03
2022-10-04T09:02:52.310Z,9.07
2022-10-04T09:05:42.623Z,12.77
2022-10-04T09:08:37.683Z,11.30
2022-10-04T09:11:29.956Z,13.83
2022-10-04T09:14:25.324Z,14.47
2022-10-04T09:17:05.663Z,10.13
2022-10-04T09:19:50.164Z,10.83
2022-10-04T09:22:26.211Z,8.87
2022-10-04T09:25:22.452Z,9.67
2022-10-04T09:28:20.640Z,8.10
2022-10-04T09:31:02.863Z,8.23
2022-10-04T09:33:57.806Z,7.43
2022-10-04T09:36:46.489Z,6.33
2022-10-04T09:39:44.250Z,10.17
2022-10-04T09:42:36.927Z,8.83
2022-10-04T09:45:31.836Z,8.00
2022-10-04T09:48:26.125Z,6.03
2022-10-04T09:51:15.016Z,9.23
2022-10-04T09:53:52.935Z,6.83
2022-10-04T09:56:52.230Z,7.17
2022-10-04T09:59:39.701Z,7.03
2022-10-04T10:02:41.036Z,7.57
2022-10-04T10:05:24.652Z,9.98
2022-10-04T10:08:01.157Z,6.95
2022-10-04T10:10:58.252Z,9.03
2022-10-04T10:13:43.911Z,6.77
2022-10-04T10:16:31.120Z,8.23
2022-10-04T10:19:16.375Z,5.82
2022-10-04T10:22:02.295Z,8.77
2022-10-04T10:25:02.165Z,5.87
2022-10-04T10:27:49.833Z,5.75
2022-10-04T10:30:24.826Z,9.30
2022-10-04T10:33:12.828Z,6.30
2022-10-04T10:35:54.261Z,7.78
2022-10-04T10:38:40.167Z,7.78
2022-10-04T10:41:30.173Z,8.90
2022-10-04T10:44:23.632Z,9.18
2022-10-04T10:47:05.578Z,5.85
2022-10-04T10:49:48.185Z,8.50
2022-10-04T10:52:51.709Z,5.68
2022-10-04T10:55:32.496Z,5.80
2022-10-04T10:58:34.110Z,5.90
2022-10-04T11:01:16.632Z,5.50
2022-10-04T11:04:08.450Z,7.30
2022-10-04T11:07:10.884Z,9.50
2022-10-04T11:10:06.617Z,8.10
2022-10-04T11:13:12.314Z,7.47
2022-10-04T11:16:13.256Z,7.72
2022-10-04T11:19:17.271Z,6.97
2022-10-04T11:22:13.845Z,5.60
2022-10-04T11:25:00.921Z,7.35
2022-10-04T11:27:48.829Z,7.53
2022-10-04T11:30:23.420Z,4.93
2022-10-04T11:33:30.998Z,4.18
2022-10-04T11:36:27.554Z,6.93
2022-10-04T11:39:08.020Z,6.10
2022-10-04T11:41:50.291Z,4.85
2022-10-04T11:44:57.059Z,4.70
2022-10-04T11:47:43.102Z,4.80
2022-10-04T11:50:37.079Z,7.10
2022-10-04T11:53:25.799Z,5.97
2022-10-04T11:56:21.874Z,5.38
2022-10-04T11:59:04.532Z,4.95
2022-10-04T12:02:02.415Z,5.82
2022-10-04T12:04:53.982Z,6.40
2022-10-04T12:07:39.662Z,7.25
2022-10-04T12:10:21.235Z,6.03
2022-10-04T12:13:14.262Z,7.72
2022-10-04T12:16:05.900Z,5.32
2022-10-04T12:19:07.080Z,3.92
2022-10-04T12:21:50.380Z,7.95
2022-10-04T12:24:48.246Z,4.70
2022-10-04T12:27:43.110Z,4.75
2022-10-04T12:30:23.851Z,8.68
2022-10-04T12:33:03.588Z,4.50
2022-10-04T12:35:43.103Z,6.20
2022-10-04T12:38:26.643Z,4.43
2022-10-04T12:41:05.020Z,7.95
2022-10-04T12:43:41.338Z,4.57
2022-10-04T12:46:26.471Z,6.13
2022-10-04T12:49:04.941Z,6.13
2022-10-04T12:51:44.524Z,5.55
2022-10-04T12:54:27.474Z,5.55
2022-10-04T12:57:09.453Z,4.32
2022-10-04T12:59:45.187Z,3.97
2022-10-04T13:02:32.212Z,4.70
2022-10-04T13:05:04.124Z,4.57
2022-10-04T13:07:48.478Z,6.07
2022-10-04T13:10:32.385Z,5.15
2022-10-04T13:13:24.076Z,7.00
2022-10-04T13:18:59.090Z,5.20
2022-10-04T13:21:55.491Z,6.32
2022-10-04T13:24:29.318Z,5.80
2022-10-04T13:27:03.696Z,3.92
2022-10-04T13:29:38.368Z,5.47
2022-10-04T13:32:14.376Z,6.70
2022-10-04T13:34:53.318Z,5.60
2022-10-04T13:37:36.565Z,9.73
2022-10-04T13:40:30.406Z,3.17
2022-10-04T13:43:17.131Z,5.03
2022-10-04T13:46:02.683Z,5.35
2022-10-04T13:48:43.786Z,5.65
2022-10-04T13:51:44.128Z,4.30
2022-10-04T13:54:40.061Z,3.45
2022-10-04T13:57:20.085Z,4.90
2022-10-04T13:59:53.548Z,7.30
2022-10-04T14:03:04.850Z,5.40
2022-10-04T14:06:06.221Z,5.85
2022-10-04T14:09:20.560Z,9.07
2022-10-04T14:12:09.795Z,5.28
2022-10-04T14:15:07.335Z,6.50
2022-10-04T14:18:07.965Z,4.45
2022-10-04T14:21:04.488Z,7.53
2022-10-04T14:24:09.073Z,6.38
2022-10-04T14:27:09.203Z,4.65
2022-10-04T14:29:51.507Z,7.05
2022-10-04T14:32:49.944Z,5.30
2022-10-04T14:35:23.300Z,5.20
2022-10-04T14:38:08.732Z,5.65
2022-10-04T14:40:51.848Z,8.00
2022-10-04T14:44:11.265Z,4.85
2022-10-04T14:46:52.532Z,7.82
2022-10-04T14:49:37.624Z,7.82
2022-10-04T14:52:21.163Z,8.38
2022-10-04T14:54:54.526Z,4.95
2022-10-04T14:57:38.046Z,6.13
2022-10-04T15:00:18.750Z,5.65
2022-10-04T15:03:01.647Z,5.07
2022-10-04T15:05:44.206Z,6.72
2022-10-04T15:08:35.614Z,4.40
2022-10-04T15:11:07.317Z,5.60
2022-10-04T15:13:40.801Z,5.13
2022-10-04T15:16:20.907Z,4.07
2022-10-04T15:18:53.371Z,3.80
2022-10-04T15:21:42.622Z,5.38
2022-10-04T15:24:27.419Z,4.55
2022-10-04T15:27:17.558Z,6.80
2022-10-04T15:29:58.324Z,6.03
2022-10-04T15:32:36.088Z,6.72
2022-10-04T15:35:20.420Z,6.93
2022-10-04T15:37:54.060Z,6.65
2022-10-04T15:40:40.769Z,6.40
2022-10-04T15:43:21.799Z,6.32
2022-10-04T15:46:25.034Z,6.30
2022-10-04T15:49:28.262Z,5.40
2022-10-04T15:52:19.039Z,4.88
2022-10-04T15:55:13.174Z,7.03
2022-10-04T15:58:02.955Z,9.20
2022-10-04T16:00:45.655Z,6.53
2022-10-04T16:03:30.804Z,5.22
2022-10-04T16:06:02.800Z,4.25
2022-10-04T16:09:14.691Z,5.97
2022-10-04T16:11:51.366Z,7.43
2022-10-04T16:14:30.159Z,4.32
2022-10-04T16:17:31.030Z,4.95
2022-10-04T16:20:16.602Z,5.22
2022-10-04T16:23:23.968Z,6.93
2022-10-04T16:25:54.000Z,6.28
2022-10-04T16:28:34.322Z,7.65
2022-10-04T16:31:22.151Z,5.55
2022-10-04T16:33:58.955Z,4.68
2022-10-04T16:36:31.967Z,4.75
2022-10-04T16:39:19.719Z,6.50
2022-10-04T16:42:02.340Z,6.00
2022-10-04T16:44:49.239Z,4.93
2022-10-04T16:47:23.560Z,4.50
2022-10-04T16:49:54.972Z,6.18
2022-10-04T16:52:49.136Z,4.83
2022-10-04T16:55:34.388Z,4.43
2022-10-04T16:58:56.062Z,4.40
2022-10-04T17:02:14.713Z,6.07
2022-10-04T17:04:55.483Z,10.03
2022-10-04T17:07:37.092Z,10.07
2022-10-04T17:10:20.978Z,7.95
2022-10-04T17:12:56.489Z,7.85
2022-10-04T17:15:37.249Z,5.40
2022-10-04T17:18:14.772Z,7.78
2022-10-04T17:20:55.447Z,5.68
2022-10-04T17:23:43.217Z,8.02
2022-10-04T17:26:26.276Z,5.57
2022-10-04T17:29:04.366Z,4.43
2022-10-04T17:31:44.810Z,6.35
2022-10-04T17:34:27.165Z,7.50
2022-10-04T17:36:57.869Z,6.53
2022-10-04T17:39:36.457Z,4.83
2022-10-04T17:42:16.772Z,6.35
2022-10-04T17:45:01.171Z,8.67
2022-10-04T17:47:51.060Z,7.50
2022-10-04T17:50:43.106Z,10.10
2022-10-04T17:53:36.187Z,8.82
2022-10-04T17:56:07.585Z,7.97
2022-10-04T17:58:43.746Z,8.50
2022-10-04T18:01:16.179Z,8.15
2022-10-04T18:03:52.145Z,10.30
2022-10-04T18:06:34.308Z,8.50
2022-10-04T18:09:06.348Z,10.85
2022-10-04T18:11:47.304Z,10.17
2022-10-04T18:14:43.111Z,10.17
2022-10-04T18:17:23.305Z,11.93
2022-10-04T18:20:02.771Z,8.63
2022-10-04T18:22:46.382Z,8.45
2022-10-04T18:25:16.292Z,11.63
2022-10-04T18:27:53.285Z,9.40
2022-10-04T18:30:22.540Z,8.93
2022-10-04T18:32:53.018Z,11.88
2022-10-04T18:35:26.934Z,11.33
2022-10-04T18:37:57.906Z,9.27
2022-10-04T18:40:28.521Z,7.78
2022-10-04T18:42:58.186Z,8.13
2022-10-04T18:45:28.333Z,10.30
2022-10-04T18:47:58.214Z,7.27
2022-10-04T18:50:34.234Z,5.73
2022-10-04T18:53:31.235Z,6.50
2022-10-04T18:56:01.596Z,8.80
2022-10-04T18:59:20.883Z,6.93
2022-10-04T19:02:02.889Z,6.35
2022-10-04T19:04:45.221Z,6.07
2022-10-04T19:07:15.603Z,6.73
2022-10-04T19:10:03.195Z,6.20
2022-10-04T19:12:37.415Z,6.27
2022-10-04T19:15:18.559Z,7.70
2022-10-04T19:17:55.380Z,8.27
2022-10-04T19:20:29.659Z,5.50
2022-10-04T19:23:08.302Z,4.82
2022-10-04T19:25:41.087Z,7.77
2022-10-04T19:28:19.143Z,5.17
2022-10-04T19:31:00.513Z,4.70
2022-10-04T19:33:38.912Z,6.97
2022-10-04T19:36:22.977Z,7.07
2022-10-04T19:39:00.215Z,6.40
2022-10-04T19:41:46.324Z,7.27
2022-10-04T19:44:30.256Z,5.87
2022-10-04T19:47:04.627Z,8.15
2022-10-04T19:49:42.515Z,6.03
2022-10-04T19:52:22.233Z,7.33
2022-10-04T19:54:57.415Z,7.60
2022-10-04T19:57:36.376Z,6.13
2022-10-04T20:00:07.422Z,8.53
2022-10-04T20:02:43.516Z,7.83
2022-10-04T20:05:16.301Z,7.28
2022-10-04T20:07:50.027Z,12.00
2022-10-04T20:10:30.378Z,7.23
2022-10-04T20:13:17.212Z,5.73
2022-10-04T20:15:48.231Z,7.93
2022-10-04T20:18:58.730Z,5.93
2022-10-04T20:21:31.315Z,9.07
2022-10-04T20:23:59.228Z,6.53
2022-10-04T20:26:56.369Z,7.77
2022-10-04T20:30:01.699Z,8.83
2022-10-04T20:32:54.970Z,7.27
2022-10-04T20:36:10.745Z,7.73
2022-10-04T20:39:02.484Z,6.63
2022-10-04T20:42:24.748Z,7.93
2022-10-04T20:44:56.225Z,6.10
2022-10-04T20:47:49.967Z,10.23
2022-10-04T20:50:22.315Z,7.80
2022-10-04T20:52:53.477Z,7.13
2022-10-04T20:55:27.226Z,7.63
2022-10-04T20:58:01.292Z,7.63
2022-10-04T21:00:33.770Z,7.47
2022-10-04T21:03:18.048Z,10.80
2022-10-04T21:05:49.919Z,8.17
2022-10-04T21:08:25.171Z,9.37
2022-10-04T21:11:06.481Z,5.53
2022-10-04T21:13:57.179Z,9.10
2022-10-04T21:16:42.920Z,7.90
2022-10-04T21:19:51.533Z,8.13
2022-10-04T21:22:37.484Z,7.73
2022-10-04T21:25:27.851Z,6.57
2022-10-04T21:27:55.665Z,8.30
2022-10-04T21:30:26.593Z,8.17
2022-10-04T21:32:54.369Z,7.83
2022-10-04T21:35:23.475Z,9.37
2022-10-04T21:37:52.547Z,9.83
2022-10-04T21:40:20.253Z,9.50
2022-10-04T21:42:47.971Z,10.47
2022-10-04T21:45:15.952Z,7.37
2022-10-04T21:47:43.646Z,10.73
2022-10-04T21:50:11.454Z,10.47
2022-10-04T21:52:41.954Z,9.47
2022-10-04T21:55:12.806Z,12.20
2022-10-04T21:57:40.571Z,10.87
2022-10-04T22:00:11.772Z,9.37
2022-10-04T22:02:42.431Z,8.33
2022-10-04T22:05:13.418Z,10.63
2022-10-04T22:07:41.175Z,11.33
2022-10-04T22:10:15.431Z,10.00
2022-10-04T22:12:43.223Z,11.37
2022-10-04T22:15:11.335Z,8.17
2022-10-04T22:17:39.029Z,8.80
2022-10-04T22:20:14.001Z,9.80
2022-10-04T22:22:43.969Z,10.97
2022-10-04T22:25:16.982Z,8.17
2022-10-04T22:27:45.521Z,9.43
2022-10-04T22:30:22.526Z,7.07
2022-10-04T22:32:50.673Z,8.40
2022-10-04T22:35:20.812Z,9.63
2022-10-04T22:37:50.191Z,10.33
2022-10-04T22:40:21.740Z,8.43
2022-10-04T22:42:52.651Z,10.37
2022-10-04T22:45:26.701Z,8.70
2022-10-04T22:47:56.899Z,10.77
2022-10-04T22:50:32.340Z,7.93
2022-10-04T22:53:11.336Z,12.57
2022-10-04T22:55:42.750Z,12.20
2022-10-04T22:58:14.127Z,12.70
2022-10-04T23:00:43.002Z,13.80
2022-10-04T23:03:25.212Z,9.67
2022-10-04T23:05:53.161Z,13.50
2022-10-04T23:08:21.048Z,10.73
2022-10-04T23:10:54.865Z,14.23
2022-10-04T23:13:25.468Z,9.37
2022-10-04T23:16:01.724Z,11.10
2022-10-04T23:18:30.440Z,11.47
2022-10-04T23:21:01.655Z,11.73
2022-10-04T23:23:34.140Z,10.70
2022-10-04T23:26:14.550Z,11.70
2022-10-04T23:28:45.529Z,9.50
2022-10-04T23:31:26.454Z,10.37
2022-10-04T23:33:58.091Z,9.70
2022-10-04T23:36:32.520Z,10.40
2022-10-04T23:39:04.287Z,8.87
2022-10-04T23:41:33.363Z,9.23
2022-10-04T23:44:01.116Z,8.83
2022-10-04T23:46:32.169Z,10.30
2022-10-04T23:48:59.982Z,9.53
2022-10-04T23:51:28.940Z,10.73
2022-10-04T23:53:56.919Z,11.50
2022-10-04T23:56:28.695Z,10.67
2022-10-04T23:58:59.824Z,10.50
